Terminal Aerodrome Forecast
Issued by NWS

Home | Current Version | Previous Version | Graphics & Text | Print | Product List | Glossary On
Versions: 1 2 3 4 5 6 7 8 9 10 11 12 13 14 15 16 17 18 19 20 21
000
FTUS43 KICT 161259 AAA
TAFCNU
TAF AMD
KCNU 161259Z 1613/1712 12008KT 6SM BR SCT003 OVC015 WS020/15050KT
      TEMPO 1613/1615 4SM -DZ BR BKN003
     FM161500 16009KT P6SM VCSH OVC003
     FM161900 21010KT P6SM OVC008
     FM162000 21010KT P6SM OVC012
     FM170200 26008KT P6SM BKN012=

USA.gov is the U.S. government's official web portal to all federal, state and local government web resources and services.